• Join FlightAware (Why Join?)
  • Login
  • US Flag 
08:42PM EDT


 

Airport Tracker/Info


-or-


 

Live Flight TrackerFlight Track Log ✈ GUG717 ✈ 04-May-2014 ✈ MNMG / MGA - MROC / SJO

Flight Track Log - Related Links

Times and Time Zones

All times are in EDT time to prevent confusion due to time zone crossing. See the GUG717 flight status page for this flight to view local times or setup timezone preferences in your user account.

Time Position Orientation Groundspeed Altitude Reporting Facility
EDT Latitude Longitude Course Direction KTS MPH feet Rate Location/Type
07:03PM 11.8708 -85.9189 138° Southeast  Level Estimated
07:04PM 11.8614 -85.9103 138° Southeast  Level Estimated
07:05PM 11.8195 -85.8718 138° Southeast  Level Estimated
07:06PM 11.7775 -85.8332 138° Southeast  Level Estimated
07:07PM 11.7356 -85.7947 138° Southeast  Level Estimated
07:08PM 11.6936 -85.7562 138° Southeast  Level Estimated
07:09PM 11.6517 -85.7177 138° Southeast  Level Estimated
07:10PM 11.6097 -85.6792 138° Southeast  Level Estimated
07:11PM 11.5677 -85.6407 138° Southeast  Level Estimated
07:12PM 11.5258 -85.6022 138° Southeast  Level Estimated
07:13PM 11.4838 -85.5638 138° Southeast  Level Estimated
07:14PM 11.4418 -85.5253 138° Southeast  Level Estimated
07:15PM 11.3998 -85.4869 138° Southeast  Level Estimated
07:16PM 11.3578 -85.4485 138° Southeast  Level Estimated
07:17PM 11.3158 -85.4101 138° Southeast  Level Estimated
07:18PM 11.2738 -85.3717 138° Southeast  Level Estimated
07:19PM 11.2318 -85.3333 138° Southeast  Level Estimated
07:20PM 11.1898 -85.2949 138° Southeast  Level Estimated
07:21PM 11.1478 -85.2565 138° Southeast  Level Estimated
07:22PM 11.1057 -85.2182 138° Southeast  Level Estimated
07:23PM 11.0637 -85.1798 138° Southeast  Level Estimated
07:24PM 11.0217 -85.1415 138° Southeast  Level Estimated
07:25PM 10.9796 -85.1032 138° Southeast  Level Estimated
07:26PM 10.9376 -85.0649 138° Southeast  Level Estimated
07:27PM 10.8955 -85.0266 138° Southeast  Level Estimated
07:28PM 10.8535 -84.9883 138° Southeast  Level Estimated
07:29PM 10.8114 -84.9500 138° Southeast  Level Estimated
07:30PM 10.7694 -84.9117 138° Southeast  Level Estimated
07:31PM 10.7273 -84.8735 138° Southeast  Level Estimated
07:32PM 10.6852 -84.8352 138° Southeast  Level Estimated
07:33PM 10.6431 -84.7970 138° Southeast  Level Estimated
07:34PM 10.6011 -84.7588 138° Southeast  Level Estimated
07:35PM 10.5590 -84.7206 138° Southeast  Level Estimated
07:36PM 10.5169 -84.6823 138° Southeast  Level Estimated
07:37PM 10.4748 -84.6441 138° Southeast  Level Estimated
07:38PM 10.4327 -84.6060 138° Southeast  Level Estimated
07:39PM 10.3906 -84.5678 138° Southeast  Level Estimated
07:40PM 10.3485 -84.5296 138° Southeast  Level Estimated
07:41PM 10.3064 -84.4915 138° Southeast  Level Estimated
07:42PM 10.2642 -84.4533 138° Southeast  Level Estimated
07:43PM 10.2221 -84.4152 138° Southeast  Level Estimated
07:44PM 10.1800 -84.3771 138° Southeast  Level Estimated